メインページ
METAR-TAF:

METAR-TAF

空港 :

ハルツーム, スーダン

ハルツーム国際空港

緯度: 15-36N, 経度: 032-33E, 海抜: 382m

現時点の気象観測

当レポートは18分前の09:30(UTC)に作成
の風 13kt
気温 32°C
湿度 12%
気圧 1013 hPa
視程: 8000m

METAR: HSSS 250930Z 35013KT 8000 32/M01 Q1013 NOSIG

時間: 12:48 (09:48 UTC)

予報

当レポートは4時間48分前の05:00(UTC)に作成
予報は25日の 06時(UTC)から 26日の 12時(UTC)まで有効
の風 8kt、最大20ktの突風を伴う
視程10km以上
1,500メートル以下は雲なし、積乱雲なし

TAF: HSSS 250500Z 2506/2612 35008G20KT CAVOK

4,000以上の空港の気象観測と天気予報(METAR報とTAF報)

利用可能な観測所は地図上に黄色い丸と赤い丸で示す。

丸の上にカーソルを重ねると観測所名を参照できる。

次にクリックすると気象観測と天気予報を参照できる。

マップの切り替え:黒色「×」印の緑ボタンをクリックして拡大、「-」印の緑ボタンをクリックして縮小、緑色の三角印をクリックして隣りの地図に切り替え


METAR-TAF: